CYBB/YBB METAR and TAF weather

Enter ICAO airport designator
Station Type Date Time Source
CYBB METAR 2020/09/23 23:00 UTC NOAA

CYBB 232300Z 16007KT 15SM BKN020 03/M01 A2995 RMK SC7 0.0/NIL/LAST STFD OBS/NXT/241200Z SLP145


Station Type Date Time Source
CYBB Decoded METAR 2020/09/23 23:00 UTC NOAA

Pelly Bay Airport, Canada (CYBB) 68-32N 089-49W
Sep 23, 2020 - 07:00 PM EDT / 2020.09.23 2300 UTC
Wind: from the SSE (160 degrees) at 8 MPH (7 KT):0
Visibility: 15 mile(s):0
Sky conditions: mostly cloudy
Temperature: 37 F (3 C)
Dew Point: 30 F (-1 C)
Relative Humidity: 74%
Pressure (altimeter): 29.95 in. Hg (1014 hPa)
ob: CYBB 232300Z 16007KT 15SM BKN020 03/M01 A2995 RMK SC7 0.0/NIL/LAST STFD OBS/NXT/241200Z SLP145
cycle: 23

Station Type Date Time Source
CYBB TAF 2020/09/23 19:00 UTC NOAA

TAF CYBB 231838Z 2319/2323 18008KT P6SM SCT010 BKN100
TEMPO 2319/2323 BKN010 BKN100 PROB30 2319/2323 3SM BR BKN008
RMK NXT FCST WILL BE ISSUED AT 241345Z

Example: see airport list